SBGL/GIG METAR and TAF weather

Enter ICAO airport designator
Station Type Date Time Source
SBGL METAR 2019/04/18 14:00 UTC NOAA

SBGL 181400Z 26012KT 9999 FEW020 29/18 Q1012


Station Type Date Time Source
SBGL Decoded METAR 2019/04/18 14:00 UTC NOAA

Galeao, Brazil (SBGL) 22-49S 043-15W 42M
Apr 18, 2019 - 10:00 AM EDT / 2019.04.18 1400 UTC
Wind: from the W (260 degrees) at 14 MPH (12 KT):0
Visibility: greater than 7 mile(s):0
Sky conditions: mostly clear
Temperature: 84 F (29 C)
Dew Point: 64 F (18 C)
Relative Humidity: 51%
Pressure (altimeter): 29.88 in. Hg (1012 hPa)
ob: SBGL 181400Z 26012KT 9999 FEW020 29/18 Q1012
cycle: 14

Station Type Date Time Source
SBGL TAF 2019/04/18 12:40 UTC NOAA

TAF SBGL 180935Z 1812/1918 27005KT 9999 SCT020 TX31/1817Z TN24/1908Z
BECMG 1812/1814 24007KT
BECMG 1815/1817 22010KT
BECMG 1821/1823 20007KT
BECMG 1902/1904 33005KT
BECMG 1906/1908 04005KT
BECMG 1909/1911 14007KT
RMK PGW

Example: see airport list